createdAt,value
2019-05-22T00:01:38.397Z,99.90
2019-05-22T00:04:19.083Z,99.90
2019-05-22T00:06:47.903Z,99.90
2019-05-22T00:09:23.583Z,99.90
2019-05-22T00:11:52.971Z,99.90
2019-05-22T00:14:20.121Z,99.90
2019-05-22T00:16:49.446Z,99.90
2019-05-22T00:19:19.343Z,99.90
2019-05-22T00:21:50.502Z,99.90
2019-05-22T00:24:18.855Z,99.90
2019-05-22T00:26:45.882Z,99.90
2019-05-22T00:29:13.326Z,99.90
2019-05-22T00:31:41.821Z,99.90
2019-05-22T00:34:12.997Z,99.90
2019-05-22T00:36:40.535Z,99.90
2019-05-22T00:39:09.526Z,99.90
2019-05-22T00:41:39.276Z,99.90
2019-05-22T00:44:09.916Z,99.90
2019-05-22T00:46:41.706Z,99.90
2019-05-22T00:49:12.214Z,99.90
2019-05-22T00:52:00.466Z,99.90
2019-05-22T00:54:43.091Z,99.90
2019-05-22T00:57:25.181Z,99.90
2019-05-22T00:59:56.206Z,99.90
2019-05-22T01:02:27.338Z,99.90
2019-05-22T01:04:57.795Z,99.90
2019-05-22T01:07:36.742Z,99.90
2019-05-22T01:10:07.144Z,99.90
2019-05-22T01:12:49.650Z,99.90
2019-05-22T01:15:20.514Z,99.90
2019-05-22T01:17:49.573Z,99.90
2019-05-22T01:20:21.827Z,99.90
2019-05-22T01:22:51.930Z,99.90
2019-05-22T01:25:21.822Z,99.90
2019-05-22T01:27:50.534Z,99.90
2019-05-22T01:30:34.862Z,99.90
2019-05-22T01:33:08.182Z,99.90
2019-05-22T01:35:36.567Z,99.90
2019-05-22T01:38:05.908Z,99.90
2019-05-22T01:40:41.637Z,99.90
2019-05-22T01:43:13.585Z,99.90
2019-05-22T01:45:52.023Z,99.90
2019-05-22T01:48:25.998Z,99.90
2019-05-22T01:50:57.586Z,99.90
2019-05-22T01:53:35.437Z,99.90
2019-05-22T01:56:06.703Z,99.90
2019-05-22T01:58:36.202Z,99.90
2019-05-22T02:01:09.039Z,99.90
2019-05-22T02:03:38.201Z,99.90
2019-05-22T02:06:06.817Z,99.90
2019-05-22T02:08:40.808Z,99.90
2019-05-22T02:11:12.754Z,99.90
2019-05-22T02:13:46.798Z,99.90
2019-05-22T02:16:13.854Z,99.90
2019-05-22T02:18:44.437Z,99.90
2019-05-22T02:21:12.624Z,99.90
2019-05-22T02:23:40.058Z,99.90
2019-05-22T02:26:09.657Z,99.90
2019-05-22T02:28:38.262Z,99.90
2019-05-22T02:31:06.528Z,99.90
2019-05-22T02:33:38.448Z,99.90
2019-05-22T02:36:07.335Z,99.90
2019-05-22T02:38:36.866Z,99.90
2019-05-22T02:41:05.577Z,99.90
2019-05-22T02:43:35.339Z,99.90
2019-05-22T02:46:04.040Z,99.90
2019-05-22T02:48:32.288Z,99.90
2019-05-22T02:51:01.347Z,99.90
2019-05-22T02:53:30.495Z,99.90
2019-05-22T02:55:59.325Z,99.90
2019-05-22T02:58:28.001Z,99.90
2019-05-22T03:01:01.159Z,99.90
2019-05-22T03:03:30.708Z,99.90
2019-05-22T03:05:59.203Z,99.90
2019-05-22T03:08:52.150Z,99.90
2019-05-22T03:11:20.681Z,99.90
2019-05-22T03:13:58.922Z,99.90
2019-05-22T03:16:32.282Z,99.90
2019-05-22T03:19:08.770Z,99.90
2019-05-22T03:21:31.171Z,99.90
2019-05-22T03:24:02.041Z,99.90
2019-05-22T03:26:37.871Z,99.90
2019-05-22T03:29:05.125Z,99.90
2019-05-22T03:31:34.251Z,99.90
2019-05-22T03:34:03.942Z,99.90
2019-05-22T03:36:33.377Z,99.90
2019-05-22T03:39:01.428Z,99.90
2019-05-22T03:41:29.705Z,99.90
2019-05-22T03:43:58.878Z,99.90
2019-05-22T03:46:34.099Z,99.90
2019-05-22T03:49:05.032Z,99.90
2019-05-22T03:51:34.718Z,99.90
2019-05-22T03:54:05.062Z,99.90
2019-05-22T03:56:38.614Z,99.90
2019-05-22T03:59:06.835Z,99.90
2019-05-22T04:01:35.719Z,99.90
2019-05-22T04:04:06.969Z,99.90
2019-05-22T04:06:36.302Z,99.90
2019-05-22T04:09:19.204Z,99.90
2019-05-22T04:11:47.945Z,99.90
2019-05-22T04:14:15.368Z,99.90
2019-05-22T04:16:44.078Z,99.90
2019-05-22T04:19:14.955Z,99.90
2019-05-22T04:21:44.483Z,99.90
2019-05-22T04:24:12.267Z,99.90
2019-05-22T04:26:40.047Z,99.90
2019-05-22T04:29:07.826Z,99.90
2019-05-22T04:32:12.211Z,99.90
2019-05-22T04:34:39.759Z,99.90
2019-05-22T04:37:09.814Z,99.90
2019-05-22T04:39:38.399Z,99.90
2019-05-22T04:42:07.078Z,99.90
2019-05-22T04:44:38.189Z,99.90
2019-05-22T04:47:05.942Z,99.90
2019-05-22T04:49:33.590Z,99.90
2019-05-22T04:52:00.607Z,99.90
2019-05-22T04:54:28.665Z,99.90
2019-05-22T04:56:56.606Z,99.90
2019-05-22T04:59:24.871Z,99.90
2019-05-22T05:01:52.429Z,99.90
2019-05-22T05:04:20.638Z,99.90
2019-05-22T05:06:48.150Z,99.90
2019-05-22T05:09:15.789Z,99.90
2019-05-22T05:11:43.432Z,99.90
2019-05-22T05:14:11.334Z,99.90
2019-05-22T05:16:38.781Z,99.90
2019-05-22T05:19:06.272Z,99.90
2019-05-22T05:21:34.012Z,99.90
2019-05-22T05:24:01.431Z,99.90
2019-05-22T05:26:31.040Z,99.90
2019-05-22T05:28:59.671Z,99.90
2019-05-22T05:31:28.502Z,99.90
2019-05-22T05:34:11.620Z,99.90
2019-05-22T05:36:44.207Z,99.90
2019-05-22T05:40:00.283Z,99.90
2019-05-22T05:42:27.965Z,99.90
2019-05-22T05:44:55.633Z,99.90
2019-05-22T05:47:23.770Z,99.90
2019-05-22T05:49:51.124Z,99.90
2019-05-22T05:52:20.928Z,99.90
2019-05-22T05:54:48.914Z,99.90
2019-05-22T05:58:14.710Z,99.90
2019-05-22T06:00:49.949Z,99.90
2019-05-22T06:03:44.238Z,99.90
2019-05-22T06:06:32.342Z,99.90
2019-05-22T06:08:59.793Z,99.90
2019-05-22T06:11:48.461Z,99.90
2019-05-22T06:14:20.062Z,99.90
2019-05-22T06:17:28.414Z,99.90
2019-05-22T06:19:58.707Z,99.90
2019-05-22T06:22:26.685Z,99.90
2019-05-22T06:24:59.405Z,99.90
2019-05-22T06:27:35.085Z,99.90
2019-05-22T06:30:07.110Z,99.90
2019-05-22T06:33:14.697Z,99.90
2019-05-22T06:35:44.031Z,99.90
2019-05-22T06:38:52.490Z,99.90
2019-05-22T06:41:24.333Z,99.90
2019-05-22T06:44:28.023Z,99.90
2019-05-22T06:46:57.603Z,99.90
2019-05-22T06:49:40.410Z,99.90
2019-05-22T06:52:08.741Z,99.90
2019-05-22T06:54:37.570Z,99.90
2019-05-22T06:57:10.323Z,99.90
2019-05-22T06:59:39.203Z,99.90
2019-05-22T07:02:10.052Z,99.90
2019-05-22T07:04:39.487Z,99.90
2019-05-22T07:07:11.558Z,99.90
2019-05-22T07:09:40.675Z,99.90
2019-05-22T07:12:12.930Z,99.90
2019-05-22T07:15:20.355Z,99.90
2019-05-22T07:17:52.011Z,99.90
2019-05-22T07:20:21.857Z,99.90
2019-05-22T07:22:50.607Z,99.90
2019-05-22T07:25:20.670Z,99.90
2019-05-22T07:27:48.830Z,99.90
2019-05-22T07:30:17.735Z,99.90
2019-05-22T07:32:46.084Z,99.90
2019-05-22T07:35:15.572Z,99.90
2019-05-22T07:37:46.256Z,99.90
2019-05-22T07:40:15.170Z,99.90
2019-05-22T07:42:43.467Z,99.90
2019-05-22T07:45:12.643Z,99.90
2019-05-22T07:47:41.797Z,99.90
2019-05-22T07:50:10.847Z,99.90
2019-05-22T07:52:39.323Z,99.90
2019-05-22T07:55:08.490Z,99.90
2019-05-22T07:57:39.535Z,99.90
2019-05-22T08:00:08.015Z,99.90
2019-05-22T08:02:42.038Z,99.90
2019-05-22T08:05:11.058Z,99.90
2019-05-22T08:07:40.235Z,99.90
2019-05-22T08:10:11.158Z,99.90
2019-05-22T08:12:39.730Z,95.60
2019-05-22T08:15:08.507Z,94.50
2019-05-22T08:17:37.371Z,93.60
2019-05-22T08:20:05.663Z,96.40
2019-05-22T08:22:34.675Z,94.20
2019-05-22T08:25:04.267Z,92.30
2019-05-22T08:27:33.226Z,85.90
2019-05-22T08:30:00.351Z,87.60
2019-05-22T08:32:28.444Z,91.30
2019-05-22T08:34:56.175Z,90.00
2019-05-22T08:37:28.028Z,84.90
2019-05-22T08:39:55.822Z,83.50
2019-05-22T08:42:23.455Z,78.20
2019-05-22T08:44:51.063Z,73.70
2019-05-22T08:47:18.633Z,72.60
2019-05-22T08:49:46.682Z,72.40
2019-05-22T08:52:23.372Z,68.10
2019-05-22T08:54:46.403Z,60.60
2019-05-22T08:57:15.539Z,57.50
2019-05-22T08:59:43.701Z,55.70
2019-05-22T09:02:11.549Z,57.70
2019-05-22T09:04:38.634Z,50.60
2019-05-22T09:07:06.140Z,48.50
2019-05-22T09:09:34.261Z,46.90
2019-05-22T09:12:01.803Z,46.50
2019-05-22T09:14:29.590Z,45.90
2019-05-22T09:16:57.784Z,47.70
2019-05-22T09:19:24.963Z,48.40
2019-05-22T09:21:52.570Z,45.50
2019-05-22T09:24:20.642Z,47.30
2019-05-22T09:26:48.632Z,46.00
2019-05-22T09:29:20.492Z,47.00
2019-05-22T09:31:48.351Z,46.60
2019-05-22T09:34:16.681Z,41.00
2019-05-22T09:36:44.371Z,38.70
2019-05-22T09:39:12.370Z,36.70
2019-05-22T09:41:40.299Z,32.60
2019-05-22T09:44:08.211Z,32.40
2019-05-22T09:46:35.872Z,33.60
2019-05-22T09:49:04.234Z,34.40
2019-05-22T09:51:31.921Z,29.90
2019-05-22T09:53:59.905Z,29.50
2019-05-22T09:56:28.155Z,28.60
2019-05-22T09:58:55.516Z,28.40
2019-05-22T10:01:23.123Z,20.60
2019-05-22T10:03:51.216Z,22.30
2019-05-22T10:06:21.665Z,17.90
2019-05-22T10:08:48.590Z,19.20
2019-05-22T10:11:15.720Z,16.60
2019-05-22T10:13:43.113Z,16.80
2019-05-22T10:16:10.680Z,18.40
2019-05-22T10:18:37.937Z,14.50
2019-05-22T10:21:05.430Z,12.00
2019-05-22T10:23:32.789Z,12.00
2019-05-22T10:26:00.987Z,12.60
2019-05-22T10:28:28.271Z,9.40
2019-05-22T10:30:57.056Z,8.50
2019-05-22T10:33:24.994Z,8.90
2019-05-22T10:35:53.325Z,7.70
2019-05-22T10:38:21.947Z,8.20
2019-05-22T10:40:50.592Z,4.10
2019-05-22T10:43:19.219Z,4.20
2019-05-22T10:45:47.990Z,4.80
2019-05-22T10:48:17.039Z,9.50
2019-05-22T10:50:44.907Z,1.00
2019-05-22T10:53:13.213Z,1.00
2019-05-22T10:55:41.789Z,1.60
2019-05-22T10:58:10.672Z,1.00
2019-05-22T11:00:38.152Z,1.00
2019-05-22T11:03:07.355Z,1.00
2019-05-22T11:05:36.039Z,2.10
2019-05-22T11:08:04.709Z,1.00
2019-05-22T11:10:33.567Z,1.00
2019-05-22T11:13:02.227Z,1.00
2019-05-22T11:15:30.792Z,1.00
2019-05-22T11:17:59.280Z,1.00
2019-05-22T11:20:28.106Z,1.00
2019-05-22T11:22:56.771Z,1.00
2019-05-22T11:25:25.163Z,1.00
2019-05-22T11:27:53.966Z,1.00
2019-05-22T11:30:23.181Z,1.00
2019-05-22T11:32:52.973Z,1.00
2019-05-22T11:35:21.066Z,1.00
2019-05-22T11:37:49.466Z,1.00
2019-05-22T11:40:21.379Z,1.00
2019-05-22T11:42:49.883Z,1.00
2019-05-22T11:45:17.532Z,1.00
2019-05-22T11:47:46.130Z,1.00
2019-05-22T11:50:15.286Z,1.00
2019-05-22T11:52:43.719Z,1.00
2019-05-22T11:55:13.807Z,1.00
2019-05-22T11:57:41.240Z,1.00
2019-05-22T12:00:10.990Z,1.00
2019-05-22T12:02:39.131Z,1.00
2019-05-22T12:05:08.789Z,1.00
2019-05-22T12:07:40.681Z,1.00
2019-05-22T12:10:10.433Z,1.00
2019-05-22T12:12:40.054Z,1.00
2019-05-22T12:15:09.819Z,1.00
2019-05-22T12:17:39.139Z,1.00
2019-05-22T12:20:09.830Z,1.00
2019-05-22T12:22:37.147Z,1.00
2019-05-22T12:25:07.528Z,1.00
2019-05-22T12:27:35.940Z,1.00
2019-05-22T12:30:04.512Z,1.00
2019-05-22T12:32:33.510Z,1.00
2019-05-22T12:35:02.363Z,1.00
2019-05-22T12:37:32.386Z,1.00
2019-05-22T12:40:01.364Z,1.00
2019-05-22T12:42:30.543Z,1.00
2019-05-22T12:44:59.624Z,1.00
2019-05-22T12:47:28.775Z,1.00
2019-05-22T12:49:57.762Z,1.00
2019-05-22T12:52:25.569Z,1.00
2019-05-22T12:54:54.223Z,1.00
2019-05-22T12:57:22.719Z,1.00
2019-05-22T12:59:52.135Z,1.00
2019-05-22T13:02:22.248Z,1.00
2019-05-22T13:04:52.212Z,1.00
2019-05-22T13:07:21.737Z,1.00
2019-05-22T13:09:50.651Z,1.00
2019-05-22T13:12:19.094Z,1.00
2019-05-22T13:14:47.602Z,1.00
2019-05-22T13:17:16.926Z,1.00
2019-05-22T13:19:46.276Z,1.00
2019-05-22T13:22:15.707Z,1.00
2019-05-22T13:24:44.273Z,1.00
2019-05-22T13:27:15.031Z,1.00
2019-05-22T13:29:43.826Z,1.00
2019-05-22T13:32:13.538Z,1.00
2019-05-22T13:34:41.899Z,1.00
2019-05-22T13:37:10.792Z,1.00
2019-05-22T13:39:39.415Z,1.00
2019-05-22T13:42:07.903Z,1.00
2019-05-22T13:44:36.718Z,1.00
2019-05-22T13:47:07.080Z,1.00
2019-05-22T13:49:36.935Z,1.00
2019-05-22T13:52:06.536Z,1.00
2019-05-22T13:54:34.497Z,1.00
2019-05-22T13:57:03.904Z,1.00
2019-05-22T13:59:32.485Z,1.00
2019-05-22T14:02:01.119Z,1.00
2019-05-22T14:04:29.304Z,1.00
2019-05-22T14:06:57.923Z,1.00
2019-05-22T14:09:28.590Z,1.00
2019-05-22T14:11:55.942Z,1.00
2019-05-22T14:14:23.614Z,1.00
2019-05-22T14:16:52.310Z,1.00
2019-05-22T14:19:20.714Z,1.00
2019-05-22T14:21:51.838Z,1.00
2019-05-22T14:24:20.027Z,1.00
2019-05-22T14:26:49.274Z,1.00
2019-05-22T14:29:17.669Z,1.00
2019-05-22T14:31:46.036Z,1.00
2019-05-22T14:34:14.578Z,1.00
2019-05-22T14:36:42.851Z,1.00
2019-05-22T14:39:12.381Z,1.00
2019-05-22T14:41:40.863Z,1.00
2019-05-22T14:44:09.646Z,1.00
2019-05-22T14:46:38.387Z,1.00
2019-05-22T14:49:06.817Z,1.00
2019-05-22T14:51:34.053Z,1.00
2019-05-22T14:54:03.207Z,1.00
2019-05-22T14:56:32.222Z,1.00
2019-05-22T14:59:00.907Z,1.00
2019-05-22T15:01:29.534Z,1.00
2019-05-22T15:03:58.334Z,1.00
2019-05-22T15:06:27.055Z,1.00
2019-05-22T15:08:55.815Z,1.00
2019-05-22T15:11:24.838Z,1.00
2019-05-22T15:13:53.343Z,1.00
2019-05-22T15:16:23.273Z,1.00
2019-05-22T15:18:52.425Z,1.00
2019-05-22T15:21:21.281Z,1.00
2019-05-22T15:23:50.725Z,1.00
2019-05-22T15:26:19.166Z,1.00
2019-05-22T15:28:48.154Z,1.00
2019-05-22T15:31:16.478Z,1.00
2019-05-22T15:33:44.609Z,1.00
2019-05-22T15:36:16.437Z,1.00
2019-05-22T15:38:47.748Z,1.00
2019-05-22T15:41:17.237Z,1.00
2019-05-22T15:43:51.474Z,1.00
2019-05-22T15:46:18.024Z,1.00
2019-05-22T15:48:46.738Z,1.00
2019-05-22T15:51:19.004Z,1.00
2019-05-22T15:53:47.937Z,1.00
2019-05-22T15:56:17.709Z,1.00
2019-05-22T15:58:50.780Z,1.00
2019-05-22T16:01:21.454Z,1.00
2019-05-22T16:03:50.573Z,1.00
2019-05-22T16:06:19.882Z,1.00
2019-05-22T16:08:49.029Z,1.00
2019-05-22T16:11:18.681Z,1.00
2019-05-22T16:13:47.219Z,1.00
2019-05-22T16:16:17.070Z,1.00
2019-05-22T16:18:49.706Z,1.00
2019-05-22T16:21:19.062Z,1.00
2019-05-22T16:23:46.903Z,1.00
2019-05-22T16:26:16.583Z,1.00
2019-05-22T16:28:45.355Z,1.00
2019-05-22T16:31:12.846Z,1.00
2019-05-22T16:33:44.678Z,1.00
2019-05-22T16:36:12.549Z,1.00
2019-05-22T16:38:41.032Z,1.00
2019-05-22T16:41:10.361Z,1.00
2019-05-22T16:43:48.691Z,1.00
2019-05-22T16:46:14.600Z,1.00
2019-05-22T16:48:45.574Z,1.00
2019-05-22T16:51:15.053Z,1.00
2019-05-22T16:53:49.631Z,1.00
2019-05-22T16:56:19.466Z,1.00
2019-05-22T16:58:48.700Z,1.00
2019-05-22T17:01:19.144Z,1.00
2019-05-22T17:03:51.175Z,1.00
2019-05-22T17:06:20.989Z,1.00
2019-05-22T17:08:50.452Z,1.00
2019-05-22T17:11:19.398Z,1.00
2019-05-22T17:13:48.106Z,1.00
2019-05-22T17:16:16.670Z,1.00
2019-05-22T17:18:48.120Z,1.00
2019-05-22T17:21:16.349Z,1.00
2019-05-22T17:23:46.379Z,1.00
2019-05-22T17:26:15.428Z,1.00
2019-05-22T17:28:44.018Z,1.00
2019-05-22T17:31:14.242Z,1.00
2019-05-22T17:33:43.289Z,1.00
2019-05-22T17:36:13.161Z,1.00
2019-05-22T17:38:42.193Z,1.00
2019-05-22T17:41:12.521Z,1.00
2019-05-22T17:43:41.113Z,1.00
2019-05-22T17:46:11.014Z,1.00
2019-05-22T17:48:44.870Z,1.00
2019-05-22T17:51:15.893Z,1.00
2019-05-22T17:53:43.458Z,1.00
2019-05-22T17:56:11.308Z,1.00
2019-05-22T17:58:39.134Z,1.00
2019-05-22T18:01:07.482Z,1.00
2019-05-22T18:03:34.770Z,1.00
2019-05-22T18:06:03.633Z,1.00
2019-05-22T18:08:32.363Z,1.00
2019-05-22T18:11:02.484Z,1.00
2019-05-22T18:13:31.117Z,1.00
2019-05-22T18:15:59.518Z,1.00
2019-05-22T18:18:27.968Z,1.00
2019-05-22T18:20:56.009Z,1.00
2019-05-22T18:23:24.433Z,1.00
2019-05-22T18:25:52.369Z,1.00
2019-05-22T18:28:21.416Z,1.00
2019-05-22T18:30:49.565Z,1.00
2019-05-22T18:33:17.816Z,1.00
2019-05-22T18:35:46.061Z,1.00
2019-05-22T18:38:14.303Z,1.00
2019-05-22T18:40:42.488Z,1.00
2019-05-22T18:43:11.484Z,1.00
2019-05-22T18:45:39.860Z,1.00
2019-05-22T18:48:08.894Z,1.00
2019-05-22T18:50:37.737Z,1.00
2019-05-22T18:53:05.955Z,1.00
2019-05-22T18:55:34.187Z,1.00
2019-05-22T18:58:02.373Z,1.00
2019-05-22T19:00:32.435Z,1.00
2019-05-22T19:03:01.149Z,1.00
2019-05-22T19:05:31.000Z,1.00
2019-05-22T19:07:59.154Z,1.00
2019-05-22T19:10:27.901Z,1.00
2019-05-22T19:12:56.078Z,1.00
2019-05-22T19:15:25.742Z,1.00
2019-05-22T19:17:54.190Z,1.00
2019-05-22T19:20:22.619Z,1.00
2019-05-22T19:23:00.169Z,1.00
2019-05-22T19:25:21.455Z,1.00
2019-05-22T19:27:49.624Z,1.00
2019-05-22T19:30:20.106Z,1.00
2019-05-22T19:32:49.078Z,1.00
2019-05-22T19:35:17.355Z,1.00
2019-05-22T19:37:46.173Z,1.00
2019-05-22T19:40:15.599Z,1.00
2019-05-22T19:42:43.664Z,1.00
2019-05-22T19:45:12.848Z,1.00
2019-05-22T19:47:48.519Z,1.00
2019-05-22T19:50:23.321Z,1.00
2019-05-22T19:52:50.537Z,1.00
2019-05-22T19:55:19.210Z,1.00
2019-05-22T19:57:47.582Z,1.00
2019-05-22T20:00:15.740Z,1.00
2019-05-22T20:02:44.486Z,1.00
2019-05-22T20:05:13.390Z,1.00
2019-05-22T20:07:42.035Z,1.00
2019-05-22T20:10:10.647Z,1.00
2019-05-22T20:12:40.026Z,1.00
2019-05-22T20:15:09.061Z,1.00
2019-05-22T20:17:37.737Z,1.00
2019-05-22T20:20:06.607Z,1.00
2019-05-22T20:22:36.159Z,1.00
2019-05-22T20:25:06.287Z,1.00
2019-05-22T20:27:34.830Z,1.00
2019-05-22T20:30:04.758Z,1.00
2019-05-22T20:32:32.559Z,1.00
2019-05-22T20:35:00.272Z,1.00
2019-05-22T20:37:32.353Z,1.00
2019-05-22T20:40:00.987Z,1.00
2019-05-22T20:42:31.471Z,1.00
2019-05-22T20:45:00.818Z,1.00
2019-05-22T20:47:28.776Z,1.00
2019-05-22T20:49:57.031Z,1.00
2019-05-22T20:52:26.838Z,1.00
2019-05-22T20:54:55.540Z,1.00
2019-05-22T20:57:25.669Z,1.00
2019-05-22T20:59:54.070Z,1.00
2019-05-22T21:02:23.366Z,1.00
2019-05-22T21:04:53.130Z,1.00
2019-05-22T21:07:45.414Z,1.00
2019-05-22T21:10:13.279Z,1.00
2019-05-22T21:12:42.847Z,1.00
2019-05-22T21:15:09.904Z,1.00
2019-05-22T21:17:39.167Z,1.00
2019-05-22T21:20:08.539Z,1.00
2019-05-22T21:22:36.544Z,1.00
2019-05-22T21:25:05.959Z,1.00
2019-05-22T21:27:33.006Z,1.00
2019-05-22T21:30:00.682Z,1.00
2019-05-22T21:32:27.966Z,1.00
2019-05-22T21:34:55.984Z,1.00
2019-05-22T21:37:23.166Z,1.00
2019-05-22T21:39:51.670Z,1.00
2019-05-22T21:42:21.444Z,1.00
2019-05-22T21:44:49.425Z,1.00
2019-05-22T21:47:18.150Z,1.00
2019-05-22T21:49:49.111Z,1.00
2019-05-22T21:52:16.798Z,1.00
2019-05-22T21:54:45.344Z,1.00
2019-05-22T21:57:13.162Z,1.00
2019-05-22T21:59:42.965Z,1.00
2019-05-22T22:02:18.335Z,1.00
2019-05-22T22:04:46.121Z,1.00
2019-05-22T22:07:13.813Z,1.00
2019-05-22T22:09:43.865Z,1.00
2019-05-22T22:12:14.063Z,1.00
2019-05-22T22:14:44.609Z,1.00
2019-05-22T22:17:16.131Z,1.00
2019-05-22T22:19:43.610Z,1.00
2019-05-22T22:22:15.701Z,1.00
2019-05-22T22:24:44.127Z,1.00
2019-05-22T22:27:13.526Z,1.00
2019-05-22T22:29:41.820Z,1.00
2019-05-22T22:32:12.710Z,1.00
2019-05-22T22:34:44.966Z,1.00
2019-05-22T22:37:13.901Z,1.00
2019-05-22T22:39:47.098Z,1.00
2019-05-22T22:42:22.287Z,1.00
2019-05-22T22:44:51.879Z,1.00
2019-05-22T22:47:27.427Z,1.00
2019-05-22T22:49:57.451Z,1.00
2019-05-22T22:52:32.342Z,1.00
2019-05-22T22:54:59.707Z,1.00
2019-05-22T22:57:27.260Z,1.00
2019-05-22T22:59:55.242Z,1.00
2019-05-22T23:02:26.194Z,1.00
2019-05-22T23:04:55.230Z,1.00
2019-05-22T23:07:26.182Z,1.00
2019-05-22T23:09:54.274Z,1.00
2019-05-22T23:12:23.430Z,1.00
2019-05-22T23:14:56.108Z,1.00
2019-05-22T23:17:25.067Z,1.00
2019-05-22T23:19:53.186Z,1.00
2019-05-22T23:22:27.065Z,1.00
2019-05-22T23:24:57.480Z,1.00
2019-05-22T23:27:26.914Z,1.00
2019-05-22T23:29:57.076Z,1.00
2019-05-22T23:32:26.554Z,1.00
2019-05-22T23:34:56.242Z,1.00
2019-05-22T23:37:23.355Z,1.00
2019-05-22T23:39:52.922Z,1.00
2019-05-22T23:42:33.172Z,1.00
2019-05-22T23:45:03.351Z,1.00
2019-05-22T23:47:32.249Z,1.00
2019-05-22T23:49:59.918Z,1.00
2019-05-22T23:52:27.428Z,1.00
2019-05-22T23:54:55.608Z,1.00
2019-05-22T23:57:26.249Z,1.00
2019-05-22T23:59:58.147Z,1.00
